Time;durP1;ratioP1;P1;durP2;ratioP2;P2;SDS_P1;SDS_P2;PMS_P1;PMS_P2;Temp;Humidity;BMP_temperature;BMP_pressure;BME280_temperature;BME280_humidity;BME280_pressure;Samples;Min_cycle;Max_cycle;Signal;HPM_P1;HPM_P2
2021/08/18 00:01:03;;;;;;;31.33;28.93;;;16.00;88.60;;;;;;5087165;28;20541;-69
2021/08/18 00:03:31;;;;;;;29.27;27.07;;;16.10;88.50;;;;;;5077741;28;20548;-69
2021/08/18 00:05:58;;;;;;;31.33;28.37;;;16.10;88.40;;;;;;5084751;28;21115;-69
2021/08/18 00:08:25;;;;;;;32.13;29.67;;;16.10;88.40;;;;;;5084030;28;20499;-70
2021/08/18 00:10:52;;;;;;;30.57;28.10;;;16.20;88.20;;;;;;5080799;28;20490;-69
2021/08/18 00:13:23;;;;;;;30.37;28.00;;;16.20;87.90;;;;;;5082574;28;20502;-69
2021/08/18 00:15:52;;;;;;;30.73;28.33;;;16.20;87.80;;;;;;5083461;28;20450;-69
2021/08/18 00:18:19;;;;;;;31.60;28.80;;;16.30;87.60;;;;;;5085604;28;20548;-69
2021/08/18 00:20:46;;;;;;;31.73;28.90;;;16.20;87.50;;;;;;5083665;28;20976;-69
2021/08/18 00:23:13;;;;;;;31.33;28.70;;;16.30;87.30;;;;;;5077409;28;20542;-69
2021/08/18 00:25:40;;;;;;;31.87;29.33;;;16.30;87.20;;;;;;5085089;28;20480;-69
2021/08/18 00:28:08;;;;;;;30.60;28.20;;;16.30;87.10;;;;;;5078360;28;20565;-69
2021/08/18 00:30:36;;;;;;;32.40;29.97;;;16.40;87.00;;;;;;5079466;28;20476;-69
2021/08/18 00:33:03;;;;;;;31.80;29.40;;;16.30;87.20;;;;;;5082172;28;21240;-69
2021/08/18 00:35:30;;;;;;;32.13;29.47;;;16.40;87.20;;;;;;5082664;28;20488;-69
2021/08/18 00:37:58;;;;;;;32.43;29.90;;;16.30;87.40;;;;;;5077977;28;20505;-69
2021/08/18 00:40:25;;;;;;;31.73;29.20;;;16.30;87.80;;;;;;5081772;28;20572;-69
2021/08/18 00:42:52;;;;;;;31.07;28.40;;;16.20;88.40;;;;;;5086808;28;20476;-69
2021/08/18 00:45:20;;;;;;;32.43;29.83;;;16.20;88.90;;;;;;5082121;28;21324;-69
2021/08/18 00:47:50;;;;;;;33.80;30.90;;;16.20;88.70;;;;;;5073853;28;20485;-69
2021/08/18 00:50:20;;;;;;;31.30;28.80;;;16.20;88.80;;;;;;5083704;28;20484;-69
2021/08/18 00:52:47;;;;;;;31.63;29.20;;;16.20;88.80;;;;;;5086980;28;21021;-68
2021/08/18 00:55:16;;;;;;;32.80;30.20;;;16.10;88.60;;;;;;5085542;28;20477;-69
2021/08/18 00:57:43;;;;;;;31.70;28.80;;;16.10;88.70;;;;;;5078483;28;20485;-69
2021/08/18 01:00:12;;;;;;;31.00;28.50;;;16.10;88.90;;;;;;5084046;28;20540;-69
2021/08/18 01:02:43;;;;;;;33.67;30.77;;;16.10;88.70;;;;;;5080109;28;20544;-69
2021/08/18 01:05:14;;;;;;;31.70;28.93;;;16.10;88.90;;;;;;5080539;28;20480;-69
2021/08/18 01:07:41;;;;;;;32.10;29.20;;;16.10;89.00;;;;;;5082260;28;20596;-69
2021/08/18 01:10:10;;;;;;;31.77;29.27;;;16.00;89.20;;;;;;5077417;28;20584;-69
2021/08/18 01:12:39;;;;;;;31.40;29.00;;;16.10;89.00;;;;;;5084198;28;20995;-69
2021/08/18 01:15:08;;;;;;;32.53;29.30;;;16.10;88.90;;;;;;5083749;28;20481;-69
2021/08/18 01:17:38;;;;;;;31.80;29.30;;;16.20;88.70;;;;;;5084711;28;20572;-69
2021/08/18 01:20:07;;;;;;;32.10;29.50;;;16.10;88.50;;;;;;5086038;28;20899;-69
2021/08/18 01:22:35;;;;;;;31.43;28.80;;;16.20;88.40;;;;;;5085568;28;20537;-69
2021/08/18 01:25:03;;;;;;;31.90;28.90;;;16.10;88.40;;;;;;5080578;28;21211;-69
2021/08/18 01:27:31;;;;;;;31.30;28.80;;;16.10;88.80;;;;;;5082188;28;20942;-69
2021/08/18 01:29:59;;;;;;;32.60;29.80;;;16.10;88.70;;;;;;5085619;28;21358;-69
2021/08/18 01:32:26;;;;;;;33.10;30.23;;;16.10;88.80;;;;;;5084519;28;20531;-69
2021/08/18 01:34:53;;;;;;;32.57;29.67;;;16.10;88.80;;;;;;5084041;28;20540;-69
2021/08/18 01:37:20;;;;;;;33.03;30.27;;;16.00;89.10;;;;;;5077089;28;20461;-69
2021/08/18 01:39:47;;;;;;;32.67;29.77;;;15.90;89.50;;;;;;5084291;28;20453;-69
2021/08/18 01:42:14;;;;;;;33.23;30.20;;;16.00;89.40;;;;;;5085690;28;20549;-69
2021/08/18 01:44:41;;;;;;;33.40;29.93;;;16.00;89.20;;;;;;5075162;28;20503;-69
2021/08/18 01:47:12;;;;;;;31.57;29.00;;;16.10;89.10;;;;;;5081791;28;20564;-69
2021/08/18 01:49:39;;;;;;;32.87;30.13;;;16.10;89.10;;;;;;5082834;28;20505;-69
2021/08/18 01:52:07;;;;;;;34.40;31.10;;;16.10;88.90;;;;;;5081905;28;20537;-69
2021/08/18 01:54:34;;;;;;;34.53;31.57;;;16.10;88.60;;;;;;5081995;28;20449;-69
2021/08/18 01:57:01;;;;;;;34.13;31.27;;;16.20;87.90;;;;;;5082613;28;20516;-69
2021/08/18 01:59:28;;;;;;;33.40;30.57;;;16.20;87.20;;;;;;5084868;28;20545;-68
2021/08/18 02:01:55;;;;;;;33.27;30.47;;;16.20;86.90;;;;;;5083611;28;20453;-69
2021/08/18 02:04:24;;;;;;;33.63;30.80;;;16.20;86.60;;;;;;5084137;28;20461;-69
2021/08/18 02:06:50;;;;;;;33.73;31.13;;;16.30;86.30;;;;;;5082974;28;21089;-69
2021/08/18 02:09:17;;;;;;;33.90;31.00;;;16.30;85.80;;;;;;5085127;28;20499;-69
2021/08/18 02:11:44;;;;;;;34.50;31.10;;;16.30;85.70;;;;;;5079073;28;20542;-69
2021/08/18 02:14:11;;;;;;;35.20;32.17;;;16.40;85.50;;;;;;5084578;28;21006;-69
2021/08/18 02:16:38;;;;;;;34.03;30.97;;;16.40;85.40;;;;;;5080935;28;20534;-69
2021/08/18 02:19:05;;;;;;;35.00;31.73;;;16.40;85.10;;;;;;5080625;28;20493;-69
2021/08/18 02:21:34;;;;;;;33.07;30.47;;;16.40;84.70;;;;;;5083861;28;20531;-69
2021/08/18 02:24:01;;;;;;;34.40;31.30;;;16.30;84.90;;;;;;5084928;28;20454;-68
2021/08/18 02:26:28;;;;;;;34.37;31.57;;;16.30;85.00;;;;;;5071631;28;20497;-69
2021/08/18 02:28:54;;;;;;;35.60;32.20;;;16.30;85.10;;;;;;5080269;28;20481;-68
2021/08/18 02:31:21;;;;;;;34.13;31.13;;;16.30;85.20;;;;;;5084937;28;20544;-69
2021/08/18 02:33:49;;;;;;;33.70;30.77;;;16.40;84.90;;;;;;5084278;28;20545;-69
2021/08/18 02:36:16;;;;;;;32.53;30.13;;;16.30;85.10;;;;;;5085434;28;20485;-69
2021/08/18 02:38:44;;;;;;;34.80;32.10;;;16.30;84.90;;;;;;5081557;28;20568;-69
2021/08/18 02:41:11;;;;;;;36.30;32.47;;;16.30;85.00;;;;;;5081945;28;20518;-70
2021/08/18 02:43:38;;;;;;;33.57;30.87;;;16.40;85.00;;;;;;5082212;28;21106;-69
2021/08/18 02:46:05;;;;;;;36.00;32.47;;;16.40;85.10;;;;;;5089444;28;20576;-69
2021/08/18 02:48:32;;;;;;;35.60;32.77;;;16.40;84.90;;;;;;5088368;28;20513;-69
2021/08/18 02:50:59;;;;;;;33.20;30.70;;;16.50;84.60;;;;;;5089608;28;20541;-69
2021/08/18 02:53:26;;;;;;;39.17;35.97;;;16.50;84.40;;;;;;5085454;28;20453;-69
2021/08/18 02:55:54;;;;;;;36.47;33.43;;;16.40;84.50;;;;;;5088883;28;20915;-69
2021/08/18 02:58:21;;;;;;;35.20;32.17;;;16.40;84.70;;;;;;5084062;28;20568;-69
2021/08/18 03:00:48;;;;;;;35.27;32.43;;;16.40;84.90;;;;;;5088590;28;20541;-69
2021/08/18 03:03:15;;;;;;;34.40;31.50;;;16.40;84.90;;;;;;5086945;28;20544;-69
2021/08/18 03:05:42;;;;;;;34.07;31.17;;;16.40;84.90;;;;;;5082866;28;20505;-69
2021/08/18 03:08:09;;;;;;;34.50;31.57;;;16.40;84.90;;;;;;5085491;28;20573;-70
2021/08/18 03:10:36;;;;;;;35.57;32.67;;;16.40;84.70;;;;;;5087959;28;20567;-69
2021/08/18 03:13:04;;;;;;;35.60;32.50;;;16.40;84.90;;;;;;5080675;28;20881;-69
2021/08/18 03:15:31;;;;;;;33.57;30.87;;;16.40;85.10;;;;;;5090323;28;21118;-69
2021/08/18 03:17:58;;;;;;;35.90;33.00;;;16.50;84.80;;;;;;5081832;28;20469;-69
2021/08/18 03:20:25;;;;;;;34.67;31.80;;;16.50;84.60;;;;;;5088829;28;20465;-69
2021/08/18 03:22:53;;;;;;;33.30;30.67;;;16.50;84.60;;;;;;5082672;28;20450;-69
2021/08/18 03:25:20;;;;;;;35.27;32.07;;;16.50;84.40;;;;;;5084151;28;20459;-69
2021/08/18 03:27:47;;;;;;;35.00;32.00;;;16.50;84.30;;;;;;5082905;28;21278;-69
2021/08/18 03:30:16;;;;;;;36.83;33.60;;;16.40;84.40;;;;;;5083710;28;20895;-69
2021/08/18 03:32:43;;;;;;;34.97;32.13;;;16.50;84.30;;;;;;5073356;28;20536;-69
2021/08/18 03:35:11;;;;;;;34.53;31.63;;;16.40;84.30;;;;;;5078809;28;20489;-69
2021/08/18 03:37:38;;;;;;;36.27;33.27;;;16.40;84.50;;;;;;5087289;28;20585;-69
2021/08/18 03:40:06;;;;;;;34.60;31.40;;;16.40;84.90;;;;;;5083551;28;20486;-69
2021/08/18 03:42:33;;;;;;;35.97;33.20;;;16.40;84.60;;;;;;5082723;28;20536;-69
2021/08/18 03:44:59;;;;;;;34.60;31.80;;;16.40;84.40;;;;;;5082840;28;20524;-69
2021/08/18 03:47:28;;;;;;;34.47;31.77;;;16.40;84.40;;;;;;5086960;28;20561;-69
2021/08/18 03:49:55;;;;;;;32.70;30.20;;;16.40;84.40;;;;;;5087288;28;20477;-69
2021/08/18 03:52:22;;;;;;;34.13;31.33;;;16.50;84.30;;;;;;5084494;28;20457;-69
2021/08/18 03:54:49;;;;;;;34.73;31.73;;;16.40;84.40;;;;;;5084022;28;20558;-69
2021/08/18 03:57:15;;;;;;;34.13;31.63;;;16.40;84.50;;;;;;5084455;28;20595;-69
2021/08/18 03:59:42;;;;;;;34.10;31.20;;;16.40;84.50;;;;;;5084184;28;20503;-69
2021/08/18 04:02:09;;;;;;;34.83;31.90;;;16.40;84.60;;;;;;5080868;28;20481;-69
2021/08/18 04:04:37;;;;;;;33.03;30.50;;;16.40;84.70;;;;;;5083896;28;20544;-69
2021/08/18 04:07:05;;;;;;;33.83;31.33;;;16.40;84.50;;;;;;5084812;28;20492;-69
2021/08/18 04:09:32;;;;;;;35.57;32.73;;;16.40;84.30;;;;;;5087246;28;20579;-69
2021/08/18 04:11:59;;;;;;;33.23;30.63;;;16.40;84.60;;;;;;5086124;28;20537;-69
2021/08/18 04:14:26;;;;;;;32.33;29.83;;;16.40;84.40;;;;;;5086804;28;21004;-69
2021/08/18 04:16:53;;;;;;;32.13;29.63;;;16.40;84.30;;;;;;5085062;28;21313;-69
2021/08/18 04:19:20;;;;;;;32.93;30.40;;;16.40;84.20;;;;;;5086005;28;20528;-69
2021/08/18 04:21:48;;;;;;;31.80;29.50;;;16.40;84.40;;;;;;5084660;28;21018;-69
2021/08/18 04:24:15;;;;;;;33.10;30.33;;;16.40;84.20;;;;;;5086713;28;20461;-69
2021/08/18 04:26:42;;;;;;;32.07;29.57;;;16.40;84.00;;;;;;5083108;28;21139;-69
2021/08/18 04:29:09;;;;;;;32.10;29.50;;;16.40;84.10;;;;;;5084645;28;20445;-69
2021/08/18 04:31:36;;;;;;;31.98;29.48;;;16.40;84.30;;;;;;5082320;28;20573;-69
2021/08/18 04:34:03;;;;;;;34.47;31.70;;;16.50;84.50;;;;;;5086353;28;20799;-70
2021/08/18 04:36:30;;;;;;;31.97;29.67;;;16.60;84.30;;;;;;5084146;28;20538;-69
2021/08/18 04:38:59;;;;;;;32.33;29.90;;;16.50;84.40;;;;;;5086658;28;20583;-73
2021/08/18 04:41:25;;;;;;;31.23;28.90;;;16.50;84.60;;;;;;5085656;28;20489;-69
2021/08/18 04:43:52;;;;;;;30.60;28.30;;;16.50;84.70;;;;;;5081047;28;20542;-69
2021/08/18 04:46:19;;;;;;;34.53;32.03;;;16.50;84.90;;;;;;5084495;28;20478;-69
2021/08/18 04:48:46;;;;;;;33.10;30.83;;;16.40;85.20;;;;;;5086029;28;21073;-69
2021/08/18 04:51:13;;;;;;;30.60;28.40;;;16.40;85.20;;;;;;5085633;28;20459;-69
2021/08/18 04:53:40;;;;;;;30.37;28.27;;;16.40;85.10;;;;;;5085307;28;20536;-69
2021/08/18 04:56:08;;;;;;;31.17;28.80;;;16.50;85.10;;;;;;5083697;28;20467;-69
2021/08/18 04:58:35;;;;;;;29.88;27.77;;;16.50;85.30;;;;;;5077503;28;20809;-68
2021/08/18 05:01:02;;;;;;;32.00;29.70;;;16.50;85.30;;;;;;5084233;28;20610;-70
2021/08/18 05:03:29;;;;;;;30.33;28.10;;;16.50;85.00;;;;;;5076998;28;20479;-69
2021/08/18 05:05:56;;;;;;;30.60;28.40;;;16.50;85.00;;;;;;5083142;28;20483;-67
2021/08/18 05:08:23;;;;;;;30.87;28.47;;;16.50;84.80;;;;;;5081560;28;20469;-71
2021/08/18 05:10:50;;;;;;;33.33;31.00;;;16.50;84.90;;;;;;5080900;28;20458;-69
2021/08/18 05:13:18;;;;;;;30.30;28.10;;;16.50;84.90;;;;;;5080884;28;20485;-69
2021/08/18 05:15:45;;;;;;;31.43;29.23;;;16.50;84.90;;;;;;5076416;28;20465;-69
2021/08/18 05:18:12;;;;;;;31.83;29.53;;;16.60;84.80;;;;;;5081415;28;20477;-70
2021/08/18 05:20:39;;;;;;;30.97;28.97;;;16.60;84.60;;;;;;5085765;28;20457;-69
2021/08/18 05:23:06;;;;;;;31.00;28.80;;;16.50;84.90;;;;;;5079544;28;20457;-69
2021/08/18 05:25:33;;;;;;;29.33;27.10;;;16.60;84.80;;;;;;5081426;28;20540;-68
2021/08/18 05:28:03;;;;;;;29.63;27.40;;;16.60;84.70;;;;;;5080688;28;20468;-69
2021/08/18 05:30:32;;;;;;;29.20;27.30;;;16.60;84.50;;;;;;5082559;28;21026;-69
2021/08/18 05:32:59;;;;;;;29.93;27.90;;;16.60;84.40;;;;;;5080178;28;20453;-68
2021/08/18 05:35:26;;;;;;;29.27;27.37;;;16.60;84.00;;;;;;5082381;28;20471;-68
2021/08/18 05:37:53;;;;;;;29.23;27.23;;;16.60;84.10;;;;;;5078985;28;20479;-69
2021/08/18 05:40:20;;;;;;;31.93;29.83;;;16.70;84.60;;;;;;5083094;28;20796;-69
2021/08/18 05:42:47;;;;;;;30.00;28.00;;;16.70;84.30;;;;;;5080677;28;20475;-69
2021/08/18 05:45:14;;;;;;;31.73;29.53;;;16.80;84.00;;;;;;5079764;28;20915;-69
2021/08/18 05:47:42;;;;;;;30.20;28.30;;;16.80;84.50;;;;;;5084314;28;20473;-68
2021/08/18 05:50:10;;;;;;;31.47;29.50;;;16.80;84.00;;;;;;5081637;28;20463;-69
2021/08/18 05:52:37;;;;;;;28.07;26.13;;;16.90;83.90;;;;;;5076529;28;20462;-69
2021/08/18 05:55:05;;;;;;;32.40;30.27;;;16.90;83.80;;;;;;5080119;28;20453;-69
2021/08/18 05:57:32;;;;;;;29.20;27.20;;;16.90;83.70;;;;;;5075565;28;21043;-69
2021/08/18 05:59:59;;;;;;;32.60;30.43;;;17.00;83.50;;;;;;5081894;28;21042;-68
2021/08/18 06:02:26;;;;;;;29.90;28.00;;;17.00;83.40;;;;;;5085692;28;20534;-69
2021/08/18 06:04:57;;;;;;;31.33;29.13;;;17.10;83.10;;;;;;5082815;28;20518;-69
2021/08/18 06:07:24;;;;;;;31.30;29.27;;;17.20;83.00;;;;;;5081608;28;21145;-69
2021/08/18 06:09:51;;;;;;;28.57;26.70;;;17.30;82.60;;;;;;5084975;28;20469;-69
2021/08/18 06:12:17;;;;;;;29.00;27.10;;;17.40;82.20;;;;;;5082460;28;20488;-70
2021/08/18 06:14:44;;;;;;;28.60;26.67;;;17.50;82.00;;;;;;5081638;28;20460;-69
2021/08/18 06:17:11;;;;;;;29.10;27.30;;;17.60;81.90;;;;;;5087044;28;20476;-69
2021/08/18 06:19:38;;;;;;;29.40;27.40;;;17.70;81.10;;;;;;5087862;28;20457;-68
2021/08/18 06:22:06;;;;;;;28.87;27.10;;;17.80;80.90;;;;;;5087597;28;20536;-69
2021/08/18 06:24:41;;;;;;;30.57;28.40;;;17.90;80.40;;;;;;5086918;28;20726;-69
2021/08/18 06:27:09;;;;;;;28.63;26.67;;;17.90;80.10;;;;;;5085083;28;20805;-69
2021/08/18 06:29:36;;;;;;;28.63;26.83;;;17.90;80.10;;;;;;5086341;28;20540;-69
2021/08/18 06:32:03;;;;;;;32.50;30.80;;;17.90;80.10;;;;;;5088346;28;20448;-69
2021/08/18 06:34:30;;;;;;;31.33;29.43;;;17.90;80.10;;;;;;5088472;28;20453;-69
2021/08/18 06:37:01;;;;;;;29.87;27.87;;;17.90;80.40;;;;;;5085719;28;21226;-69
2021/08/18 06:39:31;;;;;;;35.30;32.80;;;17.80;80.20;;;;;;5087394;28;20850;-69
2021/08/18 06:41:59;;;;;;;29.87;27.97;;;17.90;80.20;;;;;;5083993;28;20464;-69
2021/08/18 06:44:26;;;;;;;29.30;27.53;;;17.90;80.00;;;;;;5083851;28;20463;-69
2021/08/18 06:46:53;;;;;;;32.70;30.70;;;17.90;80.10;;;;;;5083833;28;20469;-69
2021/08/18 06:49:20;;;;;;;31.60;29.60;;;18.00;80.10;;;;;;5088084;28;20553;-69
2021/08/18 06:51:47;;;;;;;30.40;28.40;;;18.10;80.00;;;;;;5088815;28;20461;-69
2021/08/18 06:54:14;;;;;;;29.30;27.50;;;18.10;80.20;;;;;;5085692;28;20469;-69
2021/08/18 06:56:42;;;;;;;29.20;27.50;;;18.20;79.70;;;;;;5087510;28;20972;-70
2021/08/18 06:59:09;;;;;;;31.50;29.60;;;18.30;79.40;;;;;;5087446;28;20453;-69
2021/08/18 07:01:36;;;;;;;30.33;28.43;;;18.40;79.10;;;;;;5088014;28;20536;-69
2021/08/18 07:04:05;;;;;;;32.93;30.93;;;18.40;78.90;;;;;;5088293;28;20643;-69
2021/08/18 07:06:32;;;;;;;29.97;28.10;;;18.50;78.50;;;;;;5086497;28;20458;-69
2021/08/18 07:08:59;;;;;;;30.03;27.70;;;18.50;78.80;;;;;;5087552;28;20477;-70
2021/08/18 07:11:26;;;;;;;31.10;29.10;;;18.50;78.90;;;;;;5086368;28;21093;-69
2021/08/18 07:13:58;;;;;;;31.10;29.10;;;18.60;78.90;;;;;;5085868;28;20495;-70
2021/08/18 07:16:26;;;;;;;29.20;27.50;;;18.70;78.60;;;;;;5085634;28;21251;-69
2021/08/18 07:18:53;;;;;;;32.50;30.60;;;18.80;77.70;;;;;;5086998;28;20469;-69
2021/08/18 07:21:21;;;;;;;30.17;28.17;;;18.90;77.10;;;;;;5086167;28;20495;-69
2021/08/18 07:23:48;;;;;;;29.73;27.97;;;19.00;77.00;;;;;;5085134;28;20459;-69
2021/08/18 07:26:15;;;;;;;29.63;27.73;;;19.20;77.10;;;;;;5087544;28;21089;-69
2021/08/18 07:28:43;;;;;;;28.13;26.53;;;19.20;76.50;;;;;;5084371;28;20572;-70
2021/08/18 07:31:12;;;;;;;31.47;29.77;;;19.40;76.10;;;;;;5085795;28;20554;-70
2021/08/18 07:33:39;;;;;;;31.50;29.60;;;19.50;75.80;;;;;;5083297;28;21091;-70
2021/08/18 07:36:06;;;;;;;33.20;31.30;;;19.60;75.10;;;;;;5087224;28;20544;-70
2021/08/18 07:38:33;;;;;;;28.63;27.00;;;19.70;74.80;;;;;;5081920;28;20504;-71
2021/08/18 07:40:59;;;;;;;31.40;29.60;;;19.90;74.40;;;;;;5087661;28;20502;-70
2021/08/18 07:43:26;;;;;;;29.90;28.17;;;19.80;73.20;;;;;;5081034;28;20453;-71
2021/08/18 07:45:54;;;;;;;28.63;27.10;;;19.70;73.80;;;;;;5074748;28;20465;-70
2021/08/18 07:48:22;;;;;;;30.30;28.60;;;19.80;73.80;;;;;;5085324;28;20482;-70
2021/08/18 07:50:49;;;;;;;28.43;26.83;;;19.90;73.80;;;;;;5075713;28;21282;-71
2021/08/18 07:53:16;;;;;;;31.00;29.40;;;20.10;73.70;;;;;;5085456;28;20445;-72
2021/08/18 07:55:43;;;;;;;27.70;26.20;;;20.30;73.20;;;;;;5087689;28;20510;-71
2021/08/18 07:58:12;;;;;;;28.57;26.87;;;20.50;71.90;;;;;;5085594;28;20578;-71
2021/08/18 08:00:42;;;;;;;28.10;26.50;;;20.50;71.60;;;;;;5081798;28;20518;-71
2021/08/18 08:03:09;;;;;;;29.60;28.00;;;20.60;71.70;;;;;;5084298;28;20471;-71
2021/08/18 08:05:38;;;;;;;27.07;25.67;;;20.60;71.60;;;;;;5088382;28;20530;-71
2021/08/18 08:08:06;;;;;;;27.53;26.13;;;20.60;70.90;;;;;;5084926;28;20562;-71
2021/08/18 08:10:33;;;;;;;27.30;25.80;;;20.80;71.00;;;;;;5087691;28;20542;-70
2021/08/18 08:13:03;;;;;;;26.80;25.37;;;20.90;70.60;;;;;;5084469;28;20461;-70
2021/08/18 08:15:30;;;;;;;26.20;24.80;;;20.90;70.10;;;;;;5086924;28;20449;-70
2021/08/18 08:17:57;;;;;;;26.27;24.60;;;20.80;70.10;;;;;;5085273;28;21201;-70
2021/08/18 08:20:27;;;;;;;28.23;26.70;;;20.70;70.40;;;;;;5079977;28;20460;-70
2021/08/18 08:22:55;;;;;;;25.50;24.20;;;20.60;71.00;;;;;;5078688;28;20514;-71
2021/08/18 08:25:22;;;;;;;26.83;25.43;;;20.50;71.10;;;;;;5087090;28;20473;-70
2021/08/18 08:27:49;;;;;;;24.90;23.60;;;20.60;70.40;;;;;;5086524;28;20492;-71
2021/08/18 08:30:16;;;;;;;25.20;23.73;;;20.40;71.20;;;;;;5084391;28;20544;-70
2021/08/18 08:32:43;;;;;;;26.30;24.90;;;20.40;71.60;;;;;;5086267;28;20572;-71
2021/08/18 08:35:11;;;;;;;25.30;24.00;;;20.50;71.20;;;;;;5079256;28;20967;-72
2021/08/18 08:37:38;;;;;;;26.43;25.03;;;20.60;70.80;;;;;;5082378;28;20495;-71
2021/08/18 08:40:08;;;;;;;24.97;23.77;;;20.60;70.70;;;;;;5078021;28;20458;-71
2021/08/18 08:42:37;;;;;;;25.97;24.67;;;20.70;70.60;;;;;;5081193;28;20460;-71
2021/08/18 08:45:05;;;;;;;25.40;24.10;;;20.50;71.00;;;;;;5078951;28;20468;-71
2021/08/18 08:47:35;;;;;;;26.57;25.27;;;20.40;71.30;;;;;;5086853;28;20491;-71
2021/08/18 08:50:03;;;;;;;25.20;23.90;;;20.10;71.60;;;;;;5082925;28;20465;-71
2021/08/18 08:52:30;;;;;;;25.83;24.53;;;19.70;73.10;;;;;;5081613;28;20453;-71
2021/08/18 08:54:57;;;;;;;26.70;25.20;;;19.40;74.30;;;;;;5085376;28;20457;-71
2021/08/18 08:57:25;;;;;;;24.93;23.63;;;19.30;75.30;;;;;;5087581;28;20465;-71
2021/08/18 08:59:52;;;;;;;26.33;25.00;;;19.60;74.50;;;;;;5081444;28;20492;-71
2021/08/18 09:02:21;;;;;;;24.83;23.43;;;19.70;74.70;;;;;;5084860;28;20958;-72
2021/08/18 09:04:49;;;;;;;26.93;25.53;;;19.70;74.00;;;;;;5081332;28;20453;-72
2021/08/18 09:07:20;;;;;;;24.67;23.43;;;19.80;73.70;;;;;;5083339;28;20558;-71
2021/08/18 09:09:53;;;;;;;25.90;24.60;;;20.00;73.30;;;;;;5083635;28;20957;-71
2021/08/18 09:12:21;;;;;;;24.43;23.13;;;20.20;72.90;;;;;;5078666;28;21017;-71
2021/08/18 09:14:50;;;;;;;23.97;22.77;;;20.20;72.60;;;;;;5083775;28;20457;-71
2021/08/18 09:17:35;;;;;;;24.60;23.30;;;20.00;72.60;;;;;;5086478;28;20473;-71
2021/08/18 09:20:08;;;;;;;28.07;26.10;;;20.00;73.30;;;;;;5080193;28;20606;-71
2021/08/18 09:22:39;;;;;;;25.33;24.13;;;20.00;73.40;;;;;;5085025;28;20468;-71
2021/08/18 09:25:15;;;;;;;25.77;24.47;;;19.80;73.40;;;;;;5082307;28;20494;-70
2021/08/18 09:27:43;;;;;;;25.17;23.97;;;19.80;73.90;;;;;;5082322;28;20484;-71
2021/08/18 09:30:20;;;;;;;25.87;24.57;;;19.90;73.40;;;;;;5085140;28;21183;-71
2021/08/18 09:32:47;;;;;;;25.50;24.20;;;19.70;73.50;;;;;;5081137;28;20488;-71
2021/08/18 09:35:17;;;;;;;26.80;25.40;;;19.60;73.90;;;;;;5080085;28;20530;-71
2021/08/18 09:37:46;;;;;;;25.87;24.57;;;19.70;74.30;;;;;;5082832;28;20473;-71
2021/08/18 09:40:18;;;;;;;24.83;23.53;;;19.60;74.00;;;;;;5082220;28;20882;-71
2021/08/18 09:42:45;;;;;;;24.33;23.13;;;19.80;74.10;;;;;;5082143;28;20445;-71
2021/08/18 09:45:22;;;;;;;25.30;24.10;;;19.90;73.40;;;;;;5079097;28;20503;-71
2021/08/18 09:47:59;;;;;;;26.87;25.57;;;19.90;73.40;;;;;;5083175;28;21178;-71
2021/08/18 09:50:27;;;;;;;24.47;23.10;;;20.10;72.90;;;;;;5088768;28;20831;-71
2021/08/18 09:53:04;;;;;;;26.50;25.20;;;20.50;72.40;;;;;;5086470;28;20464;-71
2021/08/18 09:55:31;;;;;;;28.37;26.87;;;21.00;71.70;;;;;;5088053;28;20829;-71
2021/08/18 09:57:58;;;;;;;24.87;23.67;;;21.40;70.40;;;;;;5088873;28;20481;-72
2021/08/18 10:00:26;;;;;;;25.00;23.80;;;21.70;68.50;;;;;;5083970;28;20544;-72
2021/08/18 10:02:53;;;;;;;27.70;26.40;;;21.40;68.90;;;;;;5085647;28;20457;-72
2021/08/18 10:05:21;;;;;;;26.47;25.17;;;21.50;69.30;;;;;;5082395;28;20465;-71
2021/08/18 10:07:48;;;;;;;25.70;24.40;;;21.80;68.50;;;;;;5080639;28;20507;-71
2021/08/18 10:10:17;;;;;;;24.97;23.67;;;21.90;68.30;;;;;;5080863;28;20465;-71
2021/08/18 10:12:44;;;;;;;26.00;24.60;;;22.10;67.90;;;;;;5080229;28;20484;-71
2021/08/18 10:15:12;;;;;;;26.03;24.83;;;22.30;66.90;;;;;;5087954;28;20463;-72
2021/08/18 10:17:42;;;;;;;29.53;28.10;;;22.50;66.60;;;;;;5083880;28;20732;-72
2021/08/18 10:20:10;;;;;;;27.90;26.50;;;22.60;66.40;;;;;;5079446;28;20458;-72
2021/08/18 10:22:38;;;;;;;26.60;25.20;;;22.40;66.20;;;;;;5086063;28;20673;-72
2021/08/18 10:25:34;;;;;;;30.10;28.37;;;22.40;66.10;;;;;;5081359;28;20507;-71
2021/08/18 10:28:01;;;;;;;26.10;24.80;;;22.40;66.40;;;;;;5077301;28;21021;-72
2021/08/18 10:30:29;;;;;;;27.77;26.37;;;22.30;66.20;;;;;;5085292;28;20467;-72
2021/08/18 10:32:57;;;;;;;26.33;24.93;;;22.20;66.00;;;;;;5084075;28;20457;-72
2021/08/18 10:35:44;;;;;;;28.63;27.13;;;22.10;65.80;;;;;;5087086;28;20453;-72
2021/08/18 10:38:36;;;;;;;25.23;24.03;;;22.00;65.70;;;;;;5084348;28;20474;-72
2021/08/18 10:41:03;;;;;;;25.27;23.97;;;21.30;68.30;;;;;;5087451;28;20459;-72
2021/08/18 10:43:56;;;;;;;28.63;27.23;;;20.90;70.10;;;;;;5084555;28;20461;-70
2021/08/18 10:46:23;;;;;;;27.13;25.73;;;20.80;70.10;;;;;;5075886;28;20460;-69
2021/08/18 10:49:03;;;;;;;25.80;24.50;;;20.90;70.20;;;;;;5084232;28;20477;-74
2021/08/18 10:51:52;;;;;;;25.10;23.80;;;21.10;69.70;;;;;;5087646;28;20472;-78
2021/08/18 10:54:42;;;;;;;25.50;24.20;;;21.30;68.90;;;;;;5086634;28;20453;-73
2021/08/18 10:57:39;;;;;;;25.80;24.50;;;21.40;68.90;;;;;;5084295;28;20469;-72
2021/08/18 11:00:11;;;;;;;24.03;22.83;;;21.40;68.20;;;;;;5080585;28;20493;-74
2021/08/18 11:02:56;;;;;;;26.67;25.30;;;21.30;68.90;;;;;;5080483;28;20456;-73
2021/08/18 11:05:27;;;;;;;25.30;24.00;;;21.30;69.40;;;;;;5087164;28;21006;-73
2021/08/18 11:08:09;;;;;;;24.73;23.37;;;21.30;69.40;;;;;;5086224;28;20483;-73
2021/08/18 11:10:39;;;;;;;27.33;25.83;;;21.00;70.70;;;;;;5083558;28;20459;-71
2021/08/18 11:13:10;;;;;;;29.07;27.20;;;20.30;73.00;;;;;;5081748;28;20541;-75
2021/08/18 11:15:53;;;;;;;26.17;24.43;;;20.10;73.40;;;;;;5085456;28;20857;-71
2021/08/18 11:18:22;;;;;;;25.40;24.00;;;19.90;74.10;;;;;;5086876;28;20505;-71
2021/08/18 11:20:53;;;;;;;26.57;25.17;;;20.00;74.30;;;;;;5084813;28;20446;-71
2021/08/18 11:23:29;;;;;;;26.90;25.50;;;19.80;74.90;;;;;;5080657;28;21274;-71
2021/08/18 11:26:07;;;;;;;26.37;25.07;;;19.60;76.00;;;;;;5082490;28;20459;-70
2021/08/18 11:28:37;;;;;;;25.83;24.30;;;19.40;77.00;;;;;;5088086;28;21206;-71
2021/08/18 11:31:10;;;;;;;25.83;24.43;;;19.40;77.10;;;;;;5088446;28;20465;-71
2021/08/18 11:33:36;;;;;;;26.87;25.37;;;19.60;76.90;;;;;;5082715;28;20979;-70
2021/08/18 11:36:14;;;;;;;25.23;23.83;;;19.70;77.30;;;;;;5085197;28;20461;-72
2021/08/18 11:38:41;;;;;;;25.30;23.90;;;20.00;76.30;;;;;;5086805;28;20973;-72
2021/08/18 11:41:11;;;;;;;26.23;24.70;;;20.10;75.40;;;;;;5085414;28;20452;-74
2021/08/18 11:43:39;;;;;;;26.70;25.40;;;20.30;75.10;;;;;;5082797;28;20457;-72
2021/08/18 11:46:06;;;;;;;26.10;24.70;;;20.70;74.10;;;;;;5085902;28;20457;-71
2021/08/18 11:48:34;;;;;;;27.00;25.57;;;21.10;72.40;;;;;;5082034;28;20486;-70
2021/08/18 11:51:02;;;;;;;26.73;25.30;;;21.30;71.50;;;;;;5084954;28;20500;-72
2021/08/18 11:53:30;;;;;;;29.13;27.40;;;21.60;71.10;;;;;;5084661;28;20540;-72
2021/08/18 11:56:01;;;;;;;24.53;23.23;;;21.80;69.50;;;;;;5081484;28;20492;-72
2021/08/18 11:58:32;;;;;;;24.60;23.20;;;21.40;69.40;;;;;;5079581;28;20991;-72
2021/08/18 12:01:08;;;;;;;25.57;24.17;;;21.30;70.50;;;;;;5083152;28;20457;-73
2021/08/18 12:03:35;;;;;;;27.37;25.97;;;21.60;70.10;;;;;;5084930;28;20483;-72
2021/08/18 12:06:05;;;;;;;28.27;26.87;;;21.90;69.40;;;;;;5084286;28;20453;-71
2021/08/18 12:08:42;;;;;;;25.20;23.90;;;22.10;68.50;;;;;;5086642;28;20563;-70
2021/08/18 12:11:11;;;;;;;24.67;23.27;;;22.30;68.10;;;;;;5080736;28;20535;-76
2021/08/18 12:13:43;;;;;;;25.50;24.20;;;22.50;67.70;;;;;;5084956;28;20453;-72
2021/08/18 12:16:30;;;;;;;24.95;23.45;;;22.60;67.80;;;;;;5083898;28;20460;-72
2021/08/18 12:19:21;;;;;;;28.03;26.53;;;23.00;67.30;;;;;;5083819;28;20207;-72
2021/08/18 12:22:04;;;;;;;25.70;24.33;;;22.80;67.20;;;;;;5079462;28;20485;-72
2021/08/18 12:24:33;;;;;;;26.13;24.77;;;22.70;67.30;;;;;;5077807;28;20457;-72
2021/08/18 12:27:00;;;;;;;27.70;26.30;;;22.70;67.20;;;;;;5085706;28;20507;-72
2021/08/18 12:29:29;;;;;;;28.60;27.20;;;22.60;66.90;;;;;;5083294;28;21000;-72
2021/08/18 12:31:59;;;;;;;27.17;25.77;;;22.80;66.60;;;;;;5084087;28;20460;-72
2021/08/18 12:34:34;;;;;;;27.40;26.00;;;23.10;66.40;;;;;;5080845;28;20979;-70
2021/08/18 12:37:06;;;;;;;24.90;23.60;;;23.30;65.90;;;;;;5084729;28;20473;-71